sensor_id;sensor_type;location;lat;lon;timestamp;P1;durP1;ratioP1;P2;durP2;ratioP2
22935;SDS011;11633;42.716;23.312;2023-07-02T00:02:06;6.65;;;4.80;;
22935;SDS011;11633;42.716;23.312;2023-07-02T00:04:31;7.93;;;5.03;;
22935;SDS011;11633;42.716;23.312;2023-07-02T00:06:57;7.05;;;5.72;;
22935;SDS011;11633;42.716;23.312;2023-07-02T00:09:22;8.70;;;5.72;;
22935;SDS011;11633;42.716;23.312;2023-07-02T00:11:47;8.05;;;5.63;;
22935;SDS011;11633;42.716;23.312;2023-07-02T00:14:12;6.68;;;5.38;;
22935;SDS011;11633;42.716;23.312;2023-07-02T00:16:39;6.78;;;4.90;;
22935;SDS011;11633;42.716;23.312;2023-07-02T00:19:06;8.15;;;4.60;;
22935;SDS011;11633;42.716;23.312;2023-07-02T00:21:31;6.70;;;4.80;;
22935;SDS011;11633;42.716;23.312;2023-07-02T00:23:58;5.75;;;4.57;;
22935;SDS011;11633;42.716;23.312;2023-07-02T00:26:24;8.20;;;4.50;;
22935;SDS011;11633;42.716;23.312;2023-07-02T00:28:49;5.50;;;4.20;;
22935;SDS011;11633;42.716;23.312;2023-07-02T00:31:15;5.90;;;4.40;;
22935;SDS011;11633;42.716;23.312;2023-07-02T00:33:40;7.55;;;4.38;;
22935;SDS011;11633;42.716;23.312;2023-07-02T00:36:05;6.97;;;4.15;;
22935;SDS011;11633;42.716;23.312;2023-07-02T00:38:30;7.00;;;4.55;;
22935;SDS011;11633;42.716;23.312;2023-07-02T00:40:56;6.13;;;4.28;;
22935;SDS011;11633;42.716;23.312;2023-07-02T00:43:21;6.07;;;4.78;;
22935;SDS011;11633;42.716;23.312;2023-07-02T00:45:46;9.10;;;5.35;;
22935;SDS011;11633;42.716;23.312;2023-07-02T00:48:11;8.40;;;5.07;;
22935;SDS011;11633;42.716;23.312;2023-07-02T00:50:37;6.97;;;4.88;;
22935;SDS011;11633;42.716;23.312;2023-07-02T00:53:04;6.75;;;4.78;;
22935;SDS011;11633;42.716;23.312;2023-07-02T00:55:29;9.77;;;4.97;;
22935;SDS011;11633;42.716;23.312;2023-07-02T00:57:54;7.35;;;5.22;;
22935;SDS011;11633;42.716;23.312;2023-07-02T01:00:21;9.80;;;4.68;;
22935;SDS011;11633;42.716;23.312;2023-07-02T01:02:52;7.68;;;4.75;;
22935;SDS011;11633;42.716;23.312;2023-07-02T01:05:22;5.78;;;4.22;;
22935;SDS011;11633;42.716;23.312;2023-07-02T01:07:48;8.00;;;4.85;;
22935;SDS011;11633;42.716;23.312;2023-07-02T01:10:13;6.40;;;4.55;;
22935;SDS011;11633;42.716;23.312;2023-07-02T01:12:38;6.63;;;4.63;;
22935;SDS011;11633;42.716;23.312;2023-07-02T01:15:04;7.18;;;4.72;;
22935;SDS011;11633;42.716;23.312;2023-07-02T01:17:30;6.45;;;4.57;;
22935;SDS011;11633;42.716;23.312;2023-07-02T01:20:02;8.93;;;5.57;;
22935;SDS011;11633;42.716;23.312;2023-07-02T01:22:29;7.43;;;4.60;;
22935;SDS011;11633;42.716;23.312;2023-07-02T01:24:55;6.55;;;4.93;;
22935;SDS011;11633;42.716;23.312;2023-07-02T01:27:20;9.70;;;5.10;;
22935;SDS011;11633;42.716;23.312;2023-07-02T01:29:46;7.25;;;4.63;;
22935;SDS011;11633;42.716;23.312;2023-07-02T01:32:12;9.82;;;4.80;;
22935;SDS011;11633;42.716;23.312;2023-07-02T01:34:37;6.57;;;4.47;;
22935;SDS011;11633;42.716;23.312;2023-07-02T01:37:03;5.45;;;4.03;;
22935;SDS011;11633;42.716;23.312;2023-07-02T01:39:28;7.88;;;4.72;;
22935;SDS011;11633;42.716;23.312;2023-07-02T01:41:55;6.60;;;4.45;;
22935;SDS011;11633;42.716;23.312;2023-07-02T01:44:20;6.70;;;4.25;;
22935;SDS011;11633;42.716;23.312;2023-07-02T01:46:46;8.18;;;4.60;;
22935;SDS011;11633;42.716;23.312;2023-07-02T01:49:17;8.98;;;4.70;;
22935;SDS011;11633;42.716;23.312;2023-07-02T01:51:49;8.43;;;5.18;;
22935;SDS011;11633;42.716;23.312;2023-07-02T01:54:15;8.85;;;5.75;;
22935;SDS011;11633;42.716;23.312;2023-07-02T01:56:40;8.25;;;5.80;;
22935;SDS011;11633;42.716;23.312;2023-07-02T01:59:06;7.82;;;5.53;;
22935;SDS011;11633;42.716;23.312;2023-07-02T02:01:31;8.95;;;5.32;;
22935;SDS011;11633;42.716;23.312;2023-07-02T02:03:58;8.85;;;5.47;;
22935;SDS011;11633;42.716;23.312;2023-07-02T02:06:23;8.20;;;6.35;;
22935;SDS011;11633;42.716;23.312;2023-07-02T02:08:48;15.48;;;8.27;;
22935;SDS011;11633;42.716;23.312;2023-07-02T02:11:13;9.18;;;6.78;;
22935;SDS011;11633;42.716;23.312;2023-07-02T02:13:39;10.45;;;6.97;;
22935;SDS011;11633;42.716;23.312;2023-07-02T02:16:04;9.00;;;5.95;;
22935;SDS011;11633;42.716;23.312;2023-07-02T02:18:29;9.65;;;5.03;;
22935;SDS011;11633;42.716;23.312;2023-07-02T02:20:55;11.20;;;5.32;;
22935;SDS011;11633;42.716;23.312;2023-07-02T02:23:20;7.88;;;4.70;;
22935;SDS011;11633;42.716;23.312;2023-07-02T02:25:45;10.48;;;4.88;;
22935;SDS011;11633;42.716;23.312;2023-07-02T02:28:10;10.45;;;5.35;;
22935;SDS011;11633;42.716;23.312;2023-07-02T02:30:36;9.48;;;5.10;;
22935;SDS011;11633;42.716;23.312;2023-07-02T02:33:01;8.93;;;5.28;;
22935;SDS011;11633;42.716;23.312;2023-07-02T02:35:26;9.73;;;5.60;;
22935;SDS011;11633;42.716;23.312;2023-07-02T02:37:51;11.52;;;5.78;;
22935;SDS011;11633;42.716;23.312;2023-07-02T02:40:17;9.70;;;5.97;;
22935;SDS011;11633;42.716;23.312;2023-07-02T02:42:42;9.55;;;5.72;;
22935;SDS011;11633;42.716;23.312;2023-07-02T02:45:07;7.50;;;5.00;;
22935;SDS011;11633;42.716;23.312;2023-07-02T02:47:33;8.32;;;6.05;;
22935;SDS011;11633;42.716;23.312;2023-07-02T02:49:58;7.85;;;5.45;;
22935;SDS011;11633;42.716;23.312;2023-07-02T02:52:24;8.07;;;5.30;;
22935;SDS011;11633;42.716;23.312;2023-07-02T02:54:50;11.32;;;5.97;;
22935;SDS011;11633;42.716;23.312;2023-07-02T02:57:17;8.45;;;5.30;;
22935;SDS011;11633;42.716;23.312;2023-07-02T02:59:43;7.18;;;4.82;;
22935;SDS011;11633;42.716;23.312;2023-07-02T03:02:08;8.25;;;4.88;;
22935;SDS011;11633;42.716;23.312;2023-07-02T03:04:34;7.65;;;4.75;;
22935;SDS011;11633;42.716;23.312;2023-07-02T03:06:59;7.93;;;5.63;;
22935;SDS011;11633;42.716;23.312;2023-07-02T03:09:24;11.48;;;6.10;;
22935;SDS011;11633;42.716;23.312;2023-07-02T03:11:50;10.27;;;4.72;;
22935;SDS011;11633;42.716;23.312;2023-07-02T03:14:15;8.80;;;4.80;;
22935;SDS011;11633;42.716;23.312;2023-07-02T03:16:41;7.93;;;4.30;;
22935;SDS011;11633;42.716;23.312;2023-07-02T03:19:06;7.10;;;4.68;;
22935;SDS011;11633;42.716;23.312;2023-07-02T03:21:32;8.48;;;4.35;;
22935;SDS011;11633;42.716;23.312;2023-07-02T03:23:57;7.88;;;5.18;;
22935;SDS011;11633;42.716;23.312;2023-07-02T03:26:22;7.70;;;4.95;;
22935;SDS011;11633;42.716;23.312;2023-07-02T03:28:49;7.10;;;5.03;;
22935;SDS011;11633;42.716;23.312;2023-07-02T03:31:14;7.47;;;4.63;;
22935;SDS011;11633;42.716;23.312;2023-07-02T03:33:39;6.28;;;4.78;;
22935;SDS011;11633;42.716;23.312;2023-07-02T03:36:05;9.68;;;5.20;;
22935;SDS011;11633;42.716;23.312;2023-07-02T03:38:30;7.25;;;5.25;;
22935;SDS011;11633;42.716;23.312;2023-07-02T03:40:55;10.95;;;5.45;;
22935;SDS011;11633;42.716;23.312;2023-07-02T03:43:21;10.90;;;5.63;;
22935;SDS011;11633;42.716;23.312;2023-07-02T03:45:46;10.98;;;5.25;;
22935;SDS011;11633;42.716;23.312;2023-07-02T03:48:11;10.70;;;5.45;;
22935;SDS011;11633;42.716;23.312;2023-07-02T03:50:37;11.20;;;6.43;;
22935;SDS011;11633;42.716;23.312;2023-07-02T03:53:02;7.45;;;5.00;;
22935;SDS011;11633;42.716;23.312;2023-07-02T03:55:27;9.23;;;5.15;;
22935;SDS011;11633;42.716;23.312;2023-07-02T03:57:52;9.45;;;5.22;;
22935;SDS011;11633;42.716;23.312;2023-07-02T04:00:18;10.32;;;5.03;;
22935;SDS011;11633;42.716;23.312;2023-07-02T04:02:43;9.52;;;5.35;;
22935;SDS011;11633;42.716;23.312;2023-07-02T04:05:08;11.38;;;6.28;;
22935;SDS011;11633;42.716;23.312;2023-07-02T04:07:33;8.23;;;4.85;;
22935;SDS011;11633;42.716;23.312;2023-07-02T04:09:59;8.32;;;4.53;;
22935;SDS011;11633;42.716;23.312;2023-07-02T04:12:24;8.80;;;4.88;;
22935;SDS011;11633;42.716;23.312;2023-07-02T04:14:50;7.95;;;5.20;;
22935;SDS011;11633;42.716;23.312;2023-07-02T04:17:15;8.32;;;5.07;;
22935;SDS011;11633;42.716;23.312;2023-07-02T04:19:40;14.75;;;5.57;;
22935;SDS011;11633;42.716;23.312;2023-07-02T04:22:05;9.77;;;5.78;;
22935;SDS011;11633;42.716;23.312;2023-07-02T04:24:31;10.60;;;6.72;;
22935;SDS011;11633;42.716;23.312;2023-07-02T04:26:56;10.30;;;6.90;;
22935;SDS011;11633;42.716;23.312;2023-07-02T04:29:21;11.48;;;6.55;;
22935;SDS011;11633;42.716;23.312;2023-07-02T04:31:46;16.05;;;6.90;;
22935;SDS011;11633;42.716;23.312;2023-07-02T04:34:12;15.48;;;6.78;;
22935;SDS011;11633;42.716;23.312;2023-07-02T04:36:37;8.93;;;6.50;;
22935;SDS011;11633;42.716;23.312;2023-07-02T04:39:02;11.55;;;6.72;;
22935;SDS011;11633;42.716;23.312;2023-07-02T04:41:27;11.15;;;7.60;;
22935;SDS011;11633;42.716;23.312;2023-07-02T04:43:54;8.90;;;6.22;;
22935;SDS011;11633;42.716;23.312;2023-07-02T04:46:20;10.75;;;6.10;;
22935;SDS011;11633;42.716;23.312;2023-07-02T04:48:45;11.07;;;6.15;;
22935;SDS011;11633;42.716;23.312;2023-07-02T04:51:10;9.30;;;6.80;;
22935;SDS011;11633;42.716;23.312;2023-07-02T04:53:35;13.32;;;7.78;;
22935;SDS011;11633;42.716;23.312;2023-07-02T04:56:02;10.80;;;6.82;;
22935;SDS011;11633;42.716;23.312;2023-07-02T04:58:31;13.82;;;7.47;;
22935;SDS011;11633;42.716;23.312;2023-07-02T05:00:56;14.80;;;6.55;;
22935;SDS011;11633;42.716;23.312;2023-07-02T05:03:21;10.20;;;7.03;;
22935;SDS011;11633;42.716;23.312;2023-07-02T05:05:46;12.82;;;6.93;;
22935;SDS011;11633;42.716;23.312;2023-07-02T05:08:11;10.38;;;6.65;;
22935;SDS011;11633;42.716;23.312;2023-07-02T05:10:37;7.85;;;6.28;;
22935;SDS011;11633;42.716;23.312;2023-07-02T05:13:02;9.48;;;6.53;;
22935;SDS011;11633;42.716;23.312;2023-07-02T05:15:27;10.95;;;6.10;;
22935;SDS011;11633;42.716;23.312;2023-07-02T05:17:52;10.18;;;5.82;;
22935;SDS011;11633;42.716;23.312;2023-07-02T05:20:18;10.70;;;5.68;;
22935;SDS011;11633;42.716;23.312;2023-07-02T05:22:43;10.63;;;6.13;;
22935;SDS011;11633;42.716;23.312;2023-07-02T05:25:08;7.45;;;5.47;;
22935;SDS011;11633;42.716;23.312;2023-07-02T05:27:34;9.40;;;5.65;;
22935;SDS011;11633;42.716;23.312;2023-07-02T05:29:59;11.97;;;7.03;;
22935;SDS011;11633;42.716;23.312;2023-07-02T05:32:24;10.18;;;6.50;;
22935;SDS011;11633;42.716;23.312;2023-07-02T05:34:49;8.98;;;6.05;;
22935;SDS011;11633;42.716;23.312;2023-07-02T05:37:15;11.98;;;5.90;;
22935;SDS011;11633;42.716;23.312;2023-07-02T05:39:40;9.77;;;6.13;;
22935;SDS011;11633;42.716;23.312;2023-07-02T05:42:05;8.25;;;5.85;;
22935;SDS011;11633;42.716;23.312;2023-07-02T05:44:30;9.50;;;6.60;;
22935;SDS011;11633;42.716;23.312;2023-07-02T05:46:56;10.25;;;6.72;;
22935;SDS011;11633;42.716;23.312;2023-07-02T05:49:21;11.70;;;6.00;;
22935;SDS011;11633;42.716;23.312;2023-07-02T05:51:46;8.40;;;6.22;;
22935;SDS011;11633;42.716;23.312;2023-07-02T05:54:12;9.65;;;7.00;;
22935;SDS011;11633;42.716;23.312;2023-07-02T05:56:37;8.57;;;6.25;;
22935;SDS011;11633;42.716;23.312;2023-07-02T05:59:02;10.48;;;6.50;;
22935;SDS011;11633;42.716;23.312;2023-07-02T06:01:27;10.55;;;6.85;;
22935;SDS011;11633;42.716;23.312;2023-07-02T06:03:53;8.20;;;6.40;;
22935;SDS011;11633;42.716;23.312;2023-07-02T06:06:18;11.88;;;6.60;;
22935;SDS011;11633;42.716;23.312;2023-07-02T06:08:43;10.98;;;7.72;;
22935;SDS011;11633;42.716;23.312;2023-07-02T06:11:12;8.50;;;6.38;;
22935;SDS011;11633;42.716;23.312;2023-07-02T06:13:37;10.38;;;7.03;;
22935;SDS011;11633;42.716;23.312;2023-07-02T06:16:02;10.80;;;7.40;;
22935;SDS011;11633;42.716;23.312;2023-07-02T06:18:28;7.47;;;6.18;;
22935;SDS011;11633;42.716;23.312;2023-07-02T06:20:53;14.90;;;7.97;;
22935;SDS011;11633;42.716;23.312;2023-07-02T06:23:18;11.00;;;7.18;;
22935;SDS011;11633;42.716;23.312;2023-07-02T06:25:43;10.20;;;6.78;;
22935;SDS011;11633;42.716;23.312;2023-07-02T06:28:09;11.45;;;6.97;;
22935;SDS011;11633;42.716;23.312;2023-07-02T06:30:34;11.93;;;7.70;;
22935;SDS011;11633;42.716;23.312;2023-07-02T06:33:00;14.25;;;7.78;;
22935;SDS011;11633;42.716;23.312;2023-07-02T06:35:25;10.77;;;7.78;;
22935;SDS011;11633;42.716;23.312;2023-07-02T06:37:50;11.18;;;7.13;;
22935;SDS011;11633;42.716;23.312;2023-07-02T06:40:15;12.25;;;7.63;;
22935;SDS011;11633;42.716;23.312;2023-07-02T06:42:41;11.25;;;7.40;;
22935;SDS011;11633;42.716;23.312;2023-07-02T06:45:06;8.90;;;7.22;;
22935;SDS011;11633;42.716;23.312;2023-07-02T06:47:31;11.18;;;7.88;;
22935;SDS011;11633;42.716;23.312;2023-07-02T06:49:57;11.55;;;6.72;;
22935;SDS011;11633;42.716;23.312;2023-07-02T06:52:23;10.85;;;8.00;;
22935;SDS011;11633;42.716;23.312;2023-07-02T06:54:48;8.07;;;6.95;;
22935;SDS011;11633;42.716;23.312;2023-07-02T06:57:14;11.73;;;6.88;;
22935;SDS011;11633;42.716;23.312;2023-07-02T06:59:39;11.43;;;8.30;;
22935;SDS011;11633;42.716;23.312;2023-07-02T07:02:05;10.23;;;7.28;;
22935;SDS011;11633;42.716;23.312;2023-07-02T07:04:31;12.00;;;7.72;;
22935;SDS011;11633;42.716;23.312;2023-07-02T07:06:56;11.93;;;7.63;;
22935;SDS011;11633;42.716;23.312;2023-07-02T07:09:21;11.88;;;8.35;;
22935;SDS011;11633;42.716;23.312;2023-07-02T07:11:47;9.65;;;7.50;;
22935;SDS011;11633;42.716;23.312;2023-07-02T07:14:12;12.10;;;8.80;;
22935;SDS011;11633;42.716;23.312;2023-07-02T07:16:38;10.93;;;8.13;;
22935;SDS011;11633;42.716;23.312;2023-07-02T07:19:03;10.95;;;7.68;;
22935;SDS011;11633;42.716;23.312;2023-07-02T07:21:28;10.95;;;6.90;;
22935;SDS011;11633;42.716;23.312;2023-07-02T07:23:53;11.98;;;7.32;;
22935;SDS011;11633;42.716;23.312;2023-07-02T07:26:19;9.10;;;6.80;;
22935;SDS011;11633;42.716;23.312;2023-07-02T07:28:44;8.18;;;6.57;;
22935;SDS011;11633;42.716;23.312;2023-07-02T07:31:09;11.30;;;6.95;;
22935;SDS011;11633;42.716;23.312;2023-07-02T07:33:34;9.40;;;6.55;;
22935;SDS011;11633;42.716;23.312;2023-07-02T07:35:59;10.38;;;7.15;;
22935;SDS011;11633;42.716;23.312;2023-07-02T07:38:25;9.13;;;6.80;;
22935;SDS011;11633;42.716;23.312;2023-07-02T07:40:51;11.90;;;6.45;;
22935;SDS011;11633;42.716;23.312;2023-07-02T07:43:16;9.82;;;6.93;;
22935;SDS011;11633;42.716;23.312;2023-07-02T07:45:41;10.77;;;7.57;;
22935;SDS011;11633;42.716;23.312;2023-07-02T07:48:06;11.98;;;6.80;;
22935;SDS011;11633;42.716;23.312;2023-07-02T07:50:32;12.65;;;6.75;;
22935;SDS011;11633;42.716;23.312;2023-07-02T07:52:57;8.15;;;6.32;;
22935;SDS011;11633;42.716;23.312;2023-07-02T07:55:23;13.00;;;6.55;;
22935;SDS011;11633;42.716;23.312;2023-07-02T07:57:48;8.88;;;6.28;;
22935;SDS011;11633;42.716;23.312;2023-07-02T08:00:14;10.55;;;5.82;;
22935;SDS011;11633;42.716;23.312;2023-07-02T08:02:39;8.65;;;6.40;;
22935;SDS011;11633;42.716;23.312;2023-07-02T08:05:04;7.97;;;5.63;;
22935;SDS011;11633;42.716;23.312;2023-07-02T08:07:33;10.70;;;5.93;;
22935;SDS011;11633;42.716;23.312;2023-07-02T08:09:58;8.27;;;5.82;;
22935;SDS011;11633;42.716;23.312;2023-07-02T08:12:24;9.15;;;6.20;;
22935;SDS011;11633;42.716;23.312;2023-07-02T08:14:49;9.55;;;6.43;;
22935;SDS011;11633;42.716;23.312;2023-07-02T08:17:14;7.53;;;5.75;;
22935;SDS011;11633;42.716;23.312;2023-07-02T08:19:40;8.52;;;6.25;;
22935;SDS011;11633;42.716;23.312;2023-07-02T08:22:05;7.45;;;5.72;;
22935;SDS011;11633;42.716;23.312;2023-07-02T08:24:30;8.23;;;6.05;;
22935;SDS011;11633;42.716;23.312;2023-07-02T08:26:58;9.60;;;5.65;;
22935;SDS011;11633;42.716;23.312;2023-07-02T08:29:24;8.57;;;6.28;;
22935;SDS011;11633;42.716;23.312;2023-07-02T08:31:49;8.40;;;5.32;;
22935;SDS011;11633;42.716;23.312;2023-07-02T08:34:14;6.97;;;5.57;;
22935;SDS011;11633;42.716;23.312;2023-07-02T08:36:40;9.52;;;6.28;;
22935;SDS011;11633;42.716;23.312;2023-07-02T08:39:05;9.10;;;5.65;;
22935;SDS011;11633;42.716;23.312;2023-07-02T08:41:30;11.15;;;5.88;;
22935;SDS011;11633;42.716;23.312;2023-07-02T08:44:06;8.43;;;5.95;;
22935;SDS011;11633;42.716;23.312;2023-07-02T08:46:31;9.52;;;5.63;;
22935;SDS011;11633;42.716;23.312;2023-07-02T08:48:56;8.73;;;5.43;;
22935;SDS011;11633;42.716;23.312;2023-07-02T08:51:21;10.18;;;5.80;;
22935;SDS011;11633;42.716;23.312;2023-07-02T08:53:47;7.85;;;5.50;;
22935;SDS011;11633;42.716;23.312;2023-07-02T08:56:12;7.80;;;5.55;;
22935;SDS011;11633;42.716;23.312;2023-07-02T08:58:37;7.90;;;5.50;;
22935;SDS011;11633;42.716;23.312;2023-07-02T09:03:34;9.82;;;5.80;;
22935;SDS011;11633;42.716;23.312;2023-07-02T09:05:59;7.20;;;5.20;;
22935;SDS011;11633;42.716;23.312;2023-07-02T09:08:25;7.35;;;5.28;;
22935;SDS011;11633;42.716;23.312;2023-07-02T09:10:50;7.00;;;6.22;;
22935;SDS011;11633;42.716;23.312;2023-07-02T09:13:16;6.68;;;5.63;;
22935;SDS011;11633;42.716;23.312;2023-07-02T09:15:41;9.13;;;5.45;;
22935;SDS011;11633;42.716;23.312;2023-07-02T09:20:44;6.20;;;5.60;;
22935;SDS011;11633;42.716;23.312;2023-07-02T09:23:10;9.27;;;5.68;;
22935;SDS011;11633;42.716;23.312;2023-07-02T09:25:38;8.13;;;5.10;;
22935;SDS011;11633;42.716;23.312;2023-07-02T09:28:14;8.82;;;5.40;;
22935;SDS011;11633;42.716;23.312;2023-07-02T09:30:48;8.82;;;6.53;;
22935;SDS011;11633;42.716;23.312;2023-07-02T09:33:15;7.63;;;5.25;;
22935;SDS011;11633;42.716;23.312;2023-07-02T09:35:40;6.70;;;5.00;;
22935;SDS011;11633;42.716;23.312;2023-07-02T09:38:05;7.75;;;5.05;;
22935;SDS011;11633;42.716;23.312;2023-07-02T09:40:31;7.18;;;5.53;;
22935;SDS011;11633;42.716;23.312;2023-07-02T09:42:56;7.63;;;5.47;;
22935;SDS011;11633;42.716;23.312;2023-07-02T09:45:22;6.75;;;5.10;;
22935;SDS011;11633;42.716;23.312;2023-07-02T09:47:47;6.13;;;5.10;;
22935;SDS011;11633;42.716;23.312;2023-07-02T09:50:14;6.03;;;5.15;;
22935;SDS011;11633;42.716;23.312;2023-07-02T09:52:41;8.25;;;5.38;;
22935;SDS011;11633;42.716;23.312;2023-07-02T09:55:06;6.97;;;4.97;;
22935;SDS011;11633;42.716;23.312;2023-07-02T09:57:32;7.53;;;4.82;;
22935;SDS011;11633;42.716;23.312;2023-07-02T10:00:00;9.32;;;5.03;;
22935;SDS011;11633;42.716;23.312;2023-07-02T10:02:26;7.50;;;5.25;;
22935;SDS011;11633;42.716;23.312;2023-07-02T10:04:51;8.82;;;5.40;;
22935;SDS011;11633;42.716;23.312;2023-07-02T10:07:26;7.22;;;4.65;;
22935;SDS011;11633;42.716;23.312;2023-07-02T10:09:52;7.35;;;4.97;;
22935;SDS011;11633;42.716;23.312;2023-07-02T10:12:18;6.95;;;5.07;;
22935;SDS011;11633;42.716;23.312;2023-07-02T10:14:43;8.20;;;5.68;;
22935;SDS011;11633;42.716;23.312;2023-07-02T10:17:09;10.32;;;5.20;;
22935;SDS011;11633;42.716;23.312;2023-07-02T10:19:34;5.85;;;4.60;;
22935;SDS011;11633;42.716;23.312;2023-07-02T10:22:00;7.03;;;4.82;;
22935;SDS011;11633;42.716;23.312;2023-07-02T10:24:25;6.68;;;4.85;;
22935;SDS011;11633;42.716;23.312;2023-07-02T10:26:54;7.80;;;5.07;;
22935;SDS011;11633;42.716;23.312;2023-07-02T10:29:20;5.82;;;4.60;;
22935;SDS011;11633;42.716;23.312;2023-07-02T10:31:49;7.47;;;4.57;;
22935;SDS011;11633;42.716;23.312;2023-07-02T10:34:14;6.70;;;4.70;;
22935;SDS011;11633;42.716;23.312;2023-07-02T10:36:40;4.47;;;3.70;;
22935;SDS011;11633;42.716;23.312;2023-07-02T10:39:05;6.05;;;4.10;;
22935;SDS011;11633;42.716;23.312;2023-07-02T10:41:30;7.43;;;4.72;;
22935;SDS011;11633;42.716;23.312;2023-07-02T10:44:11;5.68;;;4.38;;
22935;SDS011;11633;42.716;23.312;2023-07-02T10:46:45;5.32;;;4.05;;
22935;SDS011;11633;42.716;23.312;2023-07-02T10:49:11;4.85;;;4.10;;
22935;SDS011;11633;42.716;23.312;2023-07-02T10:51:37;8.73;;;4.10;;
22935;SDS011;11633;42.716;23.312;2023-07-02T10:54:02;6.25;;;4.07;;
22935;SDS011;11633;42.716;23.312;2023-07-02T10:56:29;5.28;;;4.15;;
22935;SDS011;11633;42.716;23.312;2023-07-02T10:58:56;7.75;;;6.20;;
22935;SDS011;11633;42.716;23.312;2023-07-02T11:01:25;5.95;;;4.43;;
22935;SDS011;11633;42.716;23.312;2023-07-02T11:04:03;5.18;;;3.72;;
22935;SDS011;11633;42.716;23.312;2023-07-02T11:06:30;5.28;;;3.92;;
22935;SDS011;11633;42.716;23.312;2023-07-02T11:08:56;6.07;;;3.80;;
22935;SDS011;11633;42.716;23.312;2023-07-02T11:11:22;4.53;;;3.63;;
22935;SDS011;11633;42.716;23.312;2023-07-02T11:13:50;6.45;;;3.85;;
22935;SDS011;11633;42.716;23.312;2023-07-02T11:16:23;6.28;;;3.97;;
22935;SDS011;11633;42.716;23.312;2023-07-02T11:18:54;5.80;;;3.85;;
22935;SDS011;11633;42.716;23.312;2023-07-02T11:21:20;4.97;;;3.47;;
22935;SDS011;11633;42.716;23.312;2023-07-02T11:23:45;4.72;;;3.40;;
22935;SDS011;11633;42.716;23.312;2023-07-02T11:26:10;7.10;;;4.28;;
22935;SDS011;11633;42.716;23.312;2023-07-02T11:28:36;6.28;;;4.05;;
22935;SDS011;11633;42.716;23.312;2023-07-02T11:31:12;6.93;;;4.13;;
22935;SDS011;11633;42.716;23.312;2023-07-02T11:33:37;5.35;;;3.55;;
22935;SDS011;11633;42.716;23.312;2023-07-02T11:36:06;5.45;;;4.13;;
22935;SDS011;11633;42.716;23.312;2023-07-02T11:38:35;4.85;;;3.90;;
22935;SDS011;11633;42.716;23.312;2023-07-02T11:41:02;6.30;;;4.10;;
22935;SDS011;11633;42.716;23.312;2023-07-02T11:43:27;5.43;;;4.05;;
22935;SDS011;11633;42.716;23.312;2023-07-02T11:45:53;5.40;;;3.60;;
22935;SDS011;11633;42.716;23.312;2023-07-02T11:48:18;6.28;;;4.00;;
22935;SDS011;11633;42.716;23.312;2023-07-02T11:50:43;6.43;;;5.07;;
22935;SDS011;11633;42.716;23.312;2023-07-02T11:53:08;5.35;;;4.22;;
22935;SDS011;11633;42.716;23.312;2023-07-02T11:55:34;7.82;;;4.00;;
22935;SDS011;11633;42.716;23.312;2023-07-02T11:57:59;4.97;;;3.60;;
22935;SDS011;11633;42.716;23.312;2023-07-02T12:00:25;5.75;;;3.33;;
22935;SDS011;11633;42.716;23.312;2023-07-02T12:02:51;5.40;;;3.50;;
22935;SDS011;11633;42.716;23.312;2023-07-02T12:05:17;4.25;;;3.53;;
22935;SDS011;11633;42.716;23.312;2023-07-02T12:07:42;7.03;;;3.85;;
22935;SDS011;11633;42.716;23.312;2023-07-02T12:10:07;5.53;;;3.13;;
22935;SDS011;11633;42.716;23.312;2023-07-02T12:12:33;4.03;;;3.03;;
22935;SDS011;11633;42.716;23.312;2023-07-02T12:14:58;4.53;;;3.40;;
22935;SDS011;11633;42.716;23.312;2023-07-02T12:17:23;4.25;;;3.00;;
22935;SDS011;11633;42.716;23.312;2023-07-02T12:19:48;4.13;;;3.20;;
22935;SDS011;11633;42.716;23.312;2023-07-02T12:22:13;6.18;;;3.50;;
22935;SDS011;11633;42.716;23.312;2023-07-02T12:24:42;4.80;;;3.58;;
22935;SDS011;11633;42.716;23.312;2023-07-02T12:27:08;6.78;;;3.63;;
22935;SDS011;11633;42.716;23.312;2023-07-02T12:29:33;4.22;;;3.45;;
22935;SDS011;11633;42.716;23.312;2023-07-02T12:31:58;5.40;;;3.75;;
22935;SDS011;11633;42.716;23.312;2023-07-02T12:34:23;4.50;;;3.60;;
22935;SDS011;11633;42.716;23.312;2023-07-02T12:36:49;5.80;;;4.10;;
22935;SDS011;11633;42.716;23.312;2023-07-02T12:39:14;8.15;;;4.18;;
22935;SDS011;11633;42.716;23.312;2023-07-02T12:41:40;7.13;;;4.00;;
22935;SDS011;11633;42.716;23.312;2023-07-02T12:44:05;5.70;;;4.15;;
22935;SDS011;11633;42.716;23.312;2023-07-02T12:46:31;5.38;;;4.32;;
22935;SDS011;11633;42.716;23.312;2023-07-02T12:48:56;4.88;;;3.97;;
22935;SDS011;11633;42.716;23.312;2023-07-02T12:51:21;6.82;;;4.75;;
22935;SDS011;11633;42.716;23.312;2023-07-02T12:53:47;6.35;;;4.28;;
22935;SDS011;11633;42.716;23.312;2023-07-02T12:56:12;5.85;;;4.50;;
22935;SDS011;11633;42.716;23.312;2023-07-02T12:58:38;5.05;;;4.55;;
22935;SDS011;11633;42.716;23.312;2023-07-02T13:01:03;5.53;;;4.32;;
22935;SDS011;11633;42.716;23.312;2023-07-02T13:03:29;4.40;;;4.00;;
22935;SDS011;11633;42.716;23.312;2023-07-02T13:05:55;5.47;;;4.85;;
22935;SDS011;11633;42.716;23.312;2023-07-02T13:08:20;6.72;;;4.88;;
22935;SDS011;11633;42.716;23.312;2023-07-02T13:10:45;5.10;;;4.47;;
22935;SDS011;11633;42.716;23.312;2023-07-02T13:13:11;7.22;;;4.70;;
22935;SDS011;11633;42.716;23.312;2023-07-02T13:15:36;5.65;;;4.90;;
22935;SDS011;11633;42.716;23.312;2023-07-02T13:18:01;6.30;;;5.40;;
22935;SDS011;11633;42.716;23.312;2023-07-02T13:20:27;6.25;;;4.50;;
22935;SDS011;11633;42.716;23.312;2023-07-02T13:22:52;6.50;;;4.53;;
22935;SDS011;11633;42.716;23.312;2023-07-02T13:25:17;6.10;;;4.43;;
22935;SDS011;11633;42.716;23.312;2023-07-02T13:27:42;6.68;;;4.50;;
22935;SDS011;11633;42.716;23.312;2023-07-02T13:30:08;5.50;;;4.68;;
22935;SDS011;11633;42.716;23.312;2023-07-02T13:32:33;5.22;;;4.68;;
22935;SDS011;11633;42.716;23.312;2023-07-02T13:34:58;5.43;;;4.45;;
22935;SDS011;11633;42.716;23.312;2023-07-02T13:37:24;5.85;;;5.13;;
22935;SDS011;11633;42.716;23.312;2023-07-02T13:39:49;5.70;;;4.80;;
22935;SDS011;11633;42.716;23.312;2023-07-02T13:42:15;5.75;;;4.40;;
22935;SDS011;11633;42.716;23.312;2023-07-02T13:44:40;6.18;;;4.95;;
22935;SDS011;11633;42.716;23.312;2023-07-02T13:47:05;8.43;;;5.55;;
22935;SDS011;11633;42.716;23.312;2023-07-02T13:49:31;4.63;;;3.95;;
22935;SDS011;11633;42.716;23.312;2023-07-02T13:51:57;5.72;;;4.40;;
22935;SDS011;11633;42.716;23.312;2023-07-02T13:54:22;5.47;;;4.88;;
22935;SDS011;11633;42.716;23.312;2023-07-02T13:56:48;6.55;;;4.13;;
22935;SDS011;11633;42.716;23.312;2023-07-02T13:59:13;6.13;;;4.28;;
22935;SDS011;11633;42.716;23.312;2023-07-02T14:01:39;6.93;;;4.15;;
22935;SDS011;11633;42.716;23.312;2023-07-02T14:04:04;6.20;;;4.30;;
22935;SDS011;11633;42.716;23.312;2023-07-02T14:06:30;8.25;;;4.20;;
22935;SDS011;11633;42.716;23.312;2023-07-02T14:08:55;5.00;;;3.75;;
22935;SDS011;11633;42.716;23.312;2023-07-02T14:11:21;6.43;;;4.35;;
22935;SDS011;11633;42.716;23.312;2023-07-02T14:13:46;5.10;;;4.25;;
22935;SDS011;11633;42.716;23.312;2023-07-02T14:16:12;7.35;;;4.35;;
22935;SDS011;11633;42.716;23.312;2023-07-02T14:18:37;6.32;;;4.97;;
22935;SDS011;11633;42.716;23.312;2023-07-02T14:21:02;6.85;;;4.55;;
22935;SDS011;11633;42.716;23.312;2023-07-02T14:23:27;5.40;;;4.20;;
22935;SDS011;11633;42.716;23.312;2023-07-02T14:25:53;7.05;;;4.25;;
22935;SDS011;11633;42.716;23.312;2023-07-02T14:28:18;5.68;;;4.68;;